Honolulu, HI (96801)

9:29 AM HST on July 27, 2016 (GMT -1000)
Nuuanu | | Change Station

Elev 374 ft 21.33 °N, 157.84 °W | Updated 5 minutes ago

Mostly Cloudy
Mostly Cloudy
84.9 °F
Feels Like 87 °F
N
4.7
Wind Variable Wind from NE

Today
High -- | Low -- °F
--% Chance of Precip.
Yesterday
High -- | Low -- °F
Precip. -- in
Pressure 30.03 in
Visibility 10.0 miles
Clouds Few 2500 ft
Scattered Clouds 3800 ft
Mostly Cloudy 5500 ft
Heat Index 87 °F
Dew Point 66 °F
Humidity 53%
Rainfall 0.00 in
Snow Depth Not available.
6:03 AM 7:12 PM
Last Quarter, 40% visible
METAR PHNL 271853Z 08014KT 10SM FEW025 SCT038 BKN055 26/19 A3003 RMK AO2 SLP169 VCSH NE T02560194
Pressure 30.03 in
Visibility 10.0 miles
Clouds Few 2500 ft
Scattered Clouds 3800 ft
Mostly Cloudy 5500 ft
Heat Index 87 °F
Dew Point 66 °F
Humidity 53%
Rainfall 0.00 in
Snow Depth Not available.
6:03 AM 7:12 PM
Last Quarter, 40% visible
METAR PHNL 271853Z 08014KT 10SM FEW025 SCT038 BKN055 26/19 A3003 RMK AO2 SLP169 VCSH NE T02560194

10-Day Weather Forecast

Almanac

Astronomy

Jul. 27, 2016 Rise Set
Actual Time
Civil Twilight
Nautical Twilight
Astronomical Twilight
Moon
Length of Visible Light
Length of Day
Tomorrow will be .
, % of the Moon is Illuminated

Today's Extremes

State Highs State Lows

Community

WunderPhotos

Upload Photos

1,927,915 photos uploaded!

WunderBlog® & News

Nearby

Air Quality

  Air Quality AQ Index Pollutant
Not available.

Snow Depth

Station Depth Elevation

Earthquake Activity

City Distance Mag. Time & Date
Minimum magnitude displayed is 2.5.

Coastal Water Temperatures

Place Temperature

Stations

Nearby Weather Stations

Station Location Temp. Windchill Dew Point Humidity Wind Precip. Elev Updated Type
                   

Watches & Warnings

There are currently no watches in effect.